Opelika, AL (36801)

1:26 PM CDT on August 30, 2014 (GMT -0500)
Opelika, AL - Highland Ave. | Change Station
CLOSE
Current Station
Personal Weather Station
Location: Opelika, AL
Elevation: 856 ft
Nearby Weather Stations

Elev 856 ft 32.67 °N, 85.37 °W | Updated 25 seconds ago

Mostly Cloudy
Mostly Cloudy
88.7 °F
Feels Like 95 °F
N
6.5
Wind Variable Wind from SSW
Gusts 7.4 mph

Today
High -- | Low -- °F
--% Chance of Precip.
Yesterday
High -- | Low -- °F
Precip. -- in
6:15 AM 7:08 PM
Waxing Crescent, 23% visible
Pressure 30.15 in
Visibility 10.0 miles
Clouds Scattered Clouds 3200 ft
Scattered Clouds 4000 ft
Mostly Cloudy 4900 ft
Heat Index 95 °F
Dew Point 72 °F
Humidity 57%
Rainfall 0.00 in
Snow Depth Not available.
UV 6 out of 12
Pollen 8.30 out of 12
Air Quality Not available.
Flu Activity Not available.
METAR KAUO 301815Z 17007KT 10SM SCT032 SCT040 BKN049 30/21 A3015 RMK AO1

More Conditions Fewer Conditions

Pressure 30.15 in
Visibility 10.0 miles
Clouds Scattered Clouds 3200 ft
Scattered Clouds 4000 ft
Mostly Cloudy 4900 ft
Heat Index 95 °F
Dew Point 72 °F
Humidity 57%
Rainfall 0.00 in
Snow Depth Not available.
UV 6 out of 12
Pollen 8.30 out of 12
Air Quality Not available.
Flu Activity Not available.
METAR KAUO 301815Z 17007KT 10SM SCT032 SCT040 BKN049 30/21 A3015 RMK AO1

More Conditions Fewer Conditions

10-Day Weather Forecast

Almanac

Astronomy

Aug. 30, 2014 Rise Set
Actual Time 6:15 AM CDT 7:08 PM CDT
Civil Twilight 5:49 AM CDT 7:33 PM CDT
Nautical Twilight 5:20 AM CDT 8:03 PM CDT
Astronomical Twilight 4:49 AM CDT 8:34 PM CDT
Moon 10:44 AM CDT 10:00 PM CDT
Length of Visible Light 13h 43m
Length of Day
12h 53m
Tomorrow will be 1m 55s shorter.
Waxing Crescent, 23% of the Moon is Illuminated
Today
Waxing Crescent
Sep 2
First Quarter
Sep 8
Full
Sep 15
Last Quarter
Sep 24
New

Today's Extremes

State Highs State Lows

Community

WunderPhotos

Upload Photos

1,748,583 photos uploaded!

WunderBlogs® & News

Nearby

Snow Depth

Station Depth Elevation
No new snow has been reported.

Earthquake Activity

City Distance Mag. Time & Date
No recent earthquake activity has been reported nearby.
Minimum magnitude displayed is 2.5.

Coastal Water Temperatures

Place Temperature
No Stations Reporting

Nearby Weather Stations